EGAC/BHD METAR and TAF weather

Enter ICAO airport designator
Station Type Date Time Source
EGAC METAR 2019/04/25 21:50 UTC NOAA

EGAC 252150Z AUTO 16005KT 9999 FEW018/// OVC039/// 10/07 Q0997


Station Type Date Time Source
EGAC Decoded METAR 2019/04/25 21:50 UTC NOAA

Belfast / Harbour, United Kingdom (EGAC) 54-36N 005-53W 0M
Apr 25, 2019 - 05:50 PM EDT / 2019.04.25 2150 UTC
Wind: from the SSE (160 degrees) at 6 MPH (5 KT):0
Visibility: greater than 7 mile(s):0
Sky conditions: overcast
Temperature: 50 F (10 C)
Dew Point: 44 F (7 C)
Relative Humidity: 81%
Pressure (altimeter): 29.44 in. Hg (0997 hPa)
ob: EGAC 252150Z AUTO 16005KT 9999 FEW018/// OVC039/// 10/07 Q0997
cycle: 22

Station Type Date Time Source
EGAC TAF UTC NOAA

Error!

Example: see airport list